sensor_id;sensor_type;location;lat;lon;timestamp;P1;durP1;ratioP1;P2;durP2;ratioP2
51270;SDS011;37744;50.960;4.136;2022-11-21T00:00:17;10.50;;;3.95;;
51270;SDS011;37744;50.960;4.136;2022-11-21T00:02:43;13.00;;;3.83;;
51270;SDS011;37744;50.960;4.136;2022-11-21T00:05:08;21.13;;;4.80;;
51270;SDS011;37744;50.960;4.136;2022-11-21T00:07:34;15.57;;;4.25;;
51270;SDS011;37744;50.960;4.136;2022-11-21T00:09:59;14.10;;;3.55;;
51270;SDS011;37744;50.960;4.136;2022-11-21T00:12:26;11.57;;;4.30;;
51270;SDS011;37744;50.960;4.136;2022-11-21T00:14:51;13.80;;;4.18;;
51270;SDS011;37744;50.960;4.136;2022-11-21T00:17:16;15.23;;;4.07;;
51270;SDS011;37744;50.960;4.136;2022-11-21T00:19:41;13.35;;;3.95;;
51270;SDS011;37744;50.960;4.136;2022-11-21T00:22:07;10.68;;;4.15;;
51270;SDS011;37744;50.960;4.136;2022-11-21T00:24:32;11.45;;;4.25;;
51270;SDS011;37744;50.960;4.136;2022-11-21T00:26:58;16.15;;;4.45;;
51270;SDS011;37744;50.960;4.136;2022-11-21T00:29:23;15.27;;;4.72;;
51270;SDS011;37744;50.960;4.136;2022-11-21T00:31:49;13.23;;;4.38;;
51270;SDS011;37744;50.960;4.136;2022-11-21T00:34:14;11.45;;;4.75;;
51270;SDS011;37744;50.960;4.136;2022-11-21T00:36:40;15.63;;;4.32;;
51270;SDS011;37744;50.960;4.136;2022-11-21T00:39:06;19.50;;;5.25;;
51270;SDS011;37744;50.960;4.136;2022-11-21T00:41:31;17.25;;;4.88;;
51270;SDS011;37744;50.960;4.136;2022-11-21T00:43:56;16.15;;;4.30;;
51270;SDS011;37744;50.960;4.136;2022-11-21T00:46:21;15.07;;;4.25;;
51270;SDS011;37744;50.960;4.136;2022-11-21T00:48:46;21.55;;;5.15;;
51270;SDS011;37744;50.960;4.136;2022-11-21T00:51:12;13.02;;;4.28;;
51270;SDS011;37744;50.960;4.136;2022-11-21T00:53:37;16.95;;;4.97;;
51270;SDS011;37744;50.960;4.136;2022-11-21T00:56:02;13.50;;;4.60;;
51270;SDS011;37744;50.960;4.136;2022-11-21T00:58:28;16.63;;;4.50;;
51270;SDS011;37744;50.960;4.136;2022-11-21T01:01:00;15.10;;;4.55;;
51270;SDS011;37744;50.960;4.136;2022-11-21T01:03:25;13.57;;;4.30;;
51270;SDS011;37744;50.960;4.136;2022-11-21T01:05:51;12.23;;;4.32;;
51270;SDS011;37744;50.960;4.136;2022-11-21T01:08:16;12.20;;;4.07;;
51270;SDS011;37744;50.960;4.136;2022-11-21T01:10:41;12.48;;;4.00;;
51270;SDS011;37744;50.960;4.136;2022-11-21T01:13:06;10.57;;;3.33;;
51270;SDS011;37744;50.960;4.136;2022-11-21T01:15:32;10.43;;;3.50;;
51270;SDS011;37744;50.960;4.136;2022-11-21T01:17:57;8.70;;;3.35;;
51270;SDS011;37744;50.960;4.136;2022-11-21T01:20:23;12.98;;;3.85;;
51270;SDS011;37744;50.960;4.136;2022-11-21T01:22:48;13.10;;;3.00;;
51270;SDS011;37744;50.960;4.136;2022-11-21T01:25:13;13.70;;;3.47;;
51270;SDS011;37744;50.960;4.136;2022-11-21T01:27:38;15.05;;;3.40;;
51270;SDS011;37744;50.960;4.136;2022-11-21T01:30:04;9.43;;;2.92;;
51270;SDS011;37744;50.960;4.136;2022-11-21T01:32:29;8.80;;;3.10;;
51270;SDS011;37744;50.960;4.136;2022-11-21T01:34:55;10.23;;;3.33;;
51270;SDS011;37744;50.960;4.136;2022-11-21T01:37:20;12.63;;;3.50;;
51270;SDS011;37744;50.960;4.136;2022-11-21T01:39:45;10.57;;;3.17;;
51270;SDS011;37744;50.960;4.136;2022-11-21T01:42:10;10.52;;;3.85;;
51270;SDS011;37744;50.960;4.136;2022-11-21T01:44:46;12.32;;;3.60;;
51270;SDS011;37744;50.960;4.136;2022-11-21T01:47:12;11.93;;;3.25;;
51270;SDS011;37744;50.960;4.136;2022-11-21T01:49:37;13.73;;;4.20;;
51270;SDS011;37744;50.960;4.136;2022-11-21T01:52:04;15.15;;;3.60;;
51270;SDS011;37744;50.960;4.136;2022-11-21T01:54:42;8.98;;;3.28;;
51270;SDS011;37744;50.960;4.136;2022-11-21T01:57:13;12.07;;;3.13;;
51270;SDS011;37744;50.960;4.136;2022-11-21T01:59:43;12.90;;;3.30;;
51270;SDS011;37744;50.960;4.136;2022-11-21T02:02:09;13.85;;;3.53;;
51270;SDS011;37744;50.960;4.136;2022-11-21T02:04:35;9.45;;;3.03;;
51270;SDS011;37744;50.960;4.136;2022-11-21T02:07:02;12.73;;;3.50;;
51270;SDS011;37744;50.960;4.136;2022-11-21T02:09:29;14.57;;;3.35;;
51270;SDS011;37744;50.960;4.136;2022-11-21T02:12:00;10.23;;;3.60;;
51270;SDS011;37744;50.960;4.136;2022-11-21T02:14:27;10.35;;;2.92;;
51270;SDS011;37744;50.960;4.136;2022-11-21T02:16:53;10.50;;;3.10;;
51270;SDS011;37744;50.960;4.136;2022-11-21T02:19:27;12.15;;;3.40;;
51270;SDS011;37744;50.960;4.136;2022-11-21T02:22:16;8.00;;;3.08;;
51270;SDS011;37744;50.960;4.136;2022-11-21T02:24:42;13.50;;;3.13;;
51270;SDS011;37744;50.960;4.136;2022-11-21T02:27:10;8.82;;;3.03;;
51270;SDS011;37744;50.960;4.136;2022-11-21T02:29:35;10.55;;;2.63;;
51270;SDS011;37744;50.960;4.136;2022-11-21T02:32:04;11.35;;;2.97;;
51270;SDS011;37744;50.960;4.136;2022-11-21T02:34:29;12.32;;;3.05;;
51270;SDS011;37744;50.960;4.136;2022-11-21T02:36:55;7.53;;;2.60;;
51270;SDS011;37744;50.960;4.136;2022-11-21T02:39:31;11.77;;;2.92;;
51270;SDS011;37744;50.960;4.136;2022-11-21T02:44:45;7.57;;;2.88;;
51270;SDS011;37744;50.960;4.136;2022-11-21T02:47:11;7.18;;;2.80;;
51270;SDS011;37744;50.960;4.136;2022-11-21T02:49:39;12.20;;;2.50;;
51270;SDS011;37744;50.960;4.136;2022-11-21T02:52:05;6.82;;;2.92;;
51270;SDS011;37744;50.960;4.136;2022-11-21T02:54:30;10.57;;;2.65;;
51270;SDS011;37744;50.960;4.136;2022-11-21T02:56:55;9.68;;;2.97;;
51270;SDS011;37744;50.960;4.136;2022-11-21T02:59:21;9.27;;;2.97;;
51270;SDS011;37744;50.960;4.136;2022-11-21T03:01:47;14.43;;;2.88;;
51270;SDS011;37744;50.960;4.136;2022-11-21T03:04:12;10.32;;;2.58;;
51270;SDS011;37744;50.960;4.136;2022-11-21T03:06:37;10.38;;;2.60;;
51270;SDS011;37744;50.960;4.136;2022-11-21T03:09:02;6.82;;;2.42;;
51270;SDS011;37744;50.960;4.136;2022-11-21T03:11:27;9.80;;;2.47;;
51270;SDS011;37744;50.960;4.136;2022-11-21T03:13:53;10.85;;;2.60;;
51270;SDS011;37744;50.960;4.136;2022-11-21T03:16:18;4.70;;;2.00;;
51270;SDS011;37744;50.960;4.136;2022-11-21T03:18:43;5.65;;;2.10;;
51270;SDS011;37744;50.960;4.136;2022-11-21T03:21:08;7.45;;;2.17;;
51270;SDS011;37744;50.960;4.136;2022-11-21T03:23:33;6.78;;;2.30;;
51270;SDS011;37744;50.960;4.136;2022-11-21T03:25:59;11.55;;;2.25;;
51270;SDS011;37744;50.960;4.136;2022-11-21T03:28:24;12.52;;;2.15;;
51270;SDS011;37744;50.960;4.136;2022-11-21T03:30:49;8.38;;;2.10;;
51270;SDS011;37744;50.960;4.136;2022-11-21T03:33:14;6.53;;;2.05;;
51270;SDS011;37744;50.960;4.136;2022-11-21T03:35:40;8.43;;;2.60;;
51270;SDS011;37744;50.960;4.136;2022-11-21T03:38:05;5.70;;;2.08;;
51270;SDS011;37744;50.960;4.136;2022-11-21T03:40:30;6.88;;;2.60;;
51270;SDS011;37744;50.960;4.136;2022-11-21T03:42:55;6.50;;;1.95;;
51270;SDS011;37744;50.960;4.136;2022-11-21T03:45:21;13.00;;;2.42;;
51270;SDS011;37744;50.960;4.136;2022-11-21T03:47:46;12.00;;;2.53;;
51270;SDS011;37744;50.960;4.136;2022-11-21T03:50:11;7.38;;;2.05;;
51270;SDS011;37744;50.960;4.136;2022-11-21T03:52:39;9.00;;;2.40;;
51270;SDS011;37744;50.960;4.136;2022-11-21T03:55:04;10.73;;;2.42;;
51270;SDS011;37744;50.960;4.136;2022-11-21T03:57:29;7.97;;;2.20;;
51270;SDS011;37744;50.960;4.136;2022-11-21T03:59:55;8.55;;;2.20;;
51270;SDS011;37744;50.960;4.136;2022-11-21T04:02:20;9.55;;;2.67;;
51270;SDS011;37744;50.960;4.136;2022-11-21T04:04:45;9.02;;;2.78;;
51270;SDS011;37744;50.960;4.136;2022-11-21T04:07:10;8.98;;;2.45;;
51270;SDS011;37744;50.960;4.136;2022-11-21T04:09:36;7.88;;;2.35;;
51270;SDS011;37744;50.960;4.136;2022-11-21T04:12:01;6.07;;;2.58;;
51270;SDS011;37744;50.960;4.136;2022-11-21T04:14:26;10.30;;;2.83;;
51270;SDS011;37744;50.960;4.136;2022-11-21T04:16:51;9.25;;;2.38;;
51270;SDS011;37744;50.960;4.136;2022-11-21T04:19:17;8.75;;;2.45;;
51270;SDS011;37744;50.960;4.136;2022-11-21T04:21:42;9.40;;;2.70;;
51270;SDS011;37744;50.960;4.136;2022-11-21T04:24:07;12.82;;;2.85;;
51270;SDS011;37744;50.960;4.136;2022-11-21T04:26:32;8.65;;;2.10;;
51270;SDS011;37744;50.960;4.136;2022-11-21T04:28:58;7.18;;;2.28;;
51270;SDS011;37744;50.960;4.136;2022-11-21T04:31:26;5.03;;;2.33;;
51270;SDS011;37744;50.960;4.136;2022-11-21T04:33:51;10.05;;;2.78;;
51270;SDS011;37744;50.960;4.136;2022-11-21T04:36:16;11.55;;;2.47;;
51270;SDS011;37744;50.960;4.136;2022-11-21T04:38:42;7.13;;;2.63;;
51270;SDS011;37744;50.960;4.136;2022-11-21T04:41:07;6.32;;;1.90;;
51270;SDS011;37744;50.960;4.136;2022-11-21T04:43:32;6.78;;;2.47;;
51270;SDS011;37744;50.960;4.136;2022-11-21T04:45:58;13.55;;;2.63;;
51270;SDS011;37744;50.960;4.136;2022-11-21T04:48:23;8.07;;;2.13;;
51270;SDS011;37744;50.960;4.136;2022-11-21T04:50:48;7.15;;;2.10;;
51270;SDS011;37744;50.960;4.136;2022-11-21T04:53:14;9.00;;;2.58;;
51270;SDS011;37744;50.960;4.136;2022-11-21T04:55:39;7.18;;;1.88;;
51270;SDS011;37744;50.960;4.136;2022-11-21T04:58:04;6.45;;;2.67;;
51270;SDS011;37744;50.960;4.136;2022-11-21T05:00:29;9.73;;;2.33;;
51270;SDS011;37744;50.960;4.136;2022-11-21T05:02:59;7.70;;;2.00;;
51270;SDS011;37744;50.960;4.136;2022-11-21T05:05:25;6.28;;;2.35;;
51270;SDS011;37744;50.960;4.136;2022-11-21T05:07:50;7.50;;;2.67;;
51270;SDS011;37744;50.960;4.136;2022-11-21T05:10:15;10.40;;;2.25;;
51270;SDS011;37744;50.960;4.136;2022-11-21T05:12:40;7.93;;;2.15;;
51270;SDS011;37744;50.960;4.136;2022-11-21T05:15:24;8.57;;;2.30;;
51270;SDS011;37744;50.960;4.136;2022-11-21T05:17:50;11.75;;;2.83;;
51270;SDS011;37744;50.960;4.136;2022-11-21T05:20:15;6.90;;;2.30;;
51270;SDS011;37744;50.960;4.136;2022-11-21T05:22:40;9.95;;;2.97;;
51270;SDS011;37744;50.960;4.136;2022-11-21T05:25:05;10.77;;;2.58;;
51270;SDS011;37744;50.960;4.136;2022-11-21T05:27:31;10.32;;;2.42;;
51270;SDS011;37744;50.960;4.136;2022-11-21T05:29:56;11.13;;;2.80;;
51270;SDS011;37744;50.960;4.136;2022-11-21T05:32:21;6.97;;;2.20;;
51270;SDS011;37744;50.960;4.136;2022-11-21T05:34:47;7.50;;;2.72;;
51270;SDS011;37744;50.960;4.136;2022-11-21T05:37:12;14.07;;;2.78;;
51270;SDS011;37744;50.960;4.136;2022-11-21T05:39:37;9.30;;;3.00;;
51270;SDS011;37744;50.960;4.136;2022-11-21T05:42:02;12.23;;;2.85;;
51270;SDS011;37744;50.960;4.136;2022-11-21T05:44:28;10.13;;;2.60;;
51270;SDS011;37744;50.960;4.136;2022-11-21T05:46:53;6.93;;;2.72;;
51270;SDS011;37744;50.960;4.136;2022-11-21T05:49:18;10.38;;;3.03;;
51270;SDS011;37744;50.960;4.136;2022-11-21T05:51:44;8.57;;;2.53;;
51270;SDS011;37744;50.960;4.136;2022-11-21T05:54:12;12.05;;;2.50;;
51270;SDS011;37744;50.960;4.136;2022-11-21T05:56:38;6.75;;;2.63;;
51270;SDS011;37744;50.960;4.136;2022-11-21T05:59:03;8.40;;;2.22;;
51270;SDS011;37744;50.960;4.136;2022-11-21T06:01:29;9.00;;;3.20;;
51270;SDS011;37744;50.960;4.136;2022-11-21T06:04:12;12.10;;;3.03;;
51270;SDS011;37744;50.960;4.136;2022-11-21T06:06:37;12.25;;;3.15;;
51270;SDS011;37744;50.960;4.136;2022-11-21T06:09:03;9.98;;;3.28;;
51270;SDS011;37744;50.960;4.136;2022-11-21T06:11:28;6.38;;;2.78;;
51270;SDS011;37744;50.960;4.136;2022-11-21T06:13:54;11.23;;;2.97;;
51270;SDS011;37744;50.960;4.136;2022-11-21T06:16:19;7.35;;;2.88;;
51270;SDS011;37744;50.960;4.136;2022-11-21T06:18:46;11.35;;;3.03;;
51270;SDS011;37744;50.960;4.136;2022-11-21T06:23:37;12.65;;;3.58;;
51270;SDS011;37744;50.960;4.136;2022-11-21T06:26:03;12.50;;;2.85;;
51270;SDS011;37744;50.960;4.136;2022-11-21T06:28:30;8.85;;;3.00;;
51270;SDS011;37744;50.960;4.136;2022-11-21T06:30:55;9.02;;;2.85;;
51270;SDS011;37744;50.960;4.136;2022-11-21T06:33:20;11.13;;;3.28;;
51270;SDS011;37744;50.960;4.136;2022-11-21T06:35:46;12.90;;;3.80;;
51270;SDS011;37744;50.960;4.136;2022-11-21T06:38:11;10.45;;;3.40;;
51270;SDS011;37744;50.960;4.136;2022-11-21T06:40:42;9.07;;;3.30;;
51270;SDS011;37744;50.960;4.136;2022-11-21T06:43:07;11.07;;;3.85;;
51270;SDS011;37744;50.960;4.136;2022-11-21T06:45:33;9.38;;;3.72;;
51270;SDS011;37744;50.960;4.136;2022-11-21T06:48:00;14.95;;;4.53;;
51270;SDS011;37744;50.960;4.136;2022-11-21T06:50:25;19.85;;;4.57;;
51270;SDS011;37744;50.960;4.136;2022-11-21T06:52:50;13.77;;;4.30;;
51270;SDS011;37744;50.960;4.136;2022-11-21T06:55:15;15.05;;;4.25;;
51270;SDS011;37744;50.960;4.136;2022-11-21T06:57:41;15.15;;;5.10;;
51270;SDS011;37744;50.960;4.136;2022-11-21T07:00:06;13.80;;;4.50;;
51270;SDS011;37744;50.960;4.136;2022-11-21T07:02:32;13.15;;;4.90;;
51270;SDS011;37744;50.960;4.136;2022-11-21T07:04:57;14.75;;;5.15;;
51270;SDS011;37744;50.960;4.136;2022-11-21T07:07:22;15.50;;;4.80;;
51270;SDS011;37744;50.960;4.136;2022-11-21T07:09:47;10.00;;;4.40;;
51270;SDS011;37744;50.960;4.136;2022-11-21T07:12:12;16.33;;;4.90;;
51270;SDS011;37744;50.960;4.136;2022-11-21T07:14:56;18.27;;;4.85;;
51270;SDS011;37744;50.960;4.136;2022-11-21T07:17:22;17.60;;;4.95;;
51270;SDS011;37744;50.960;4.136;2022-11-21T07:19:47;13.73;;;5.22;;
51270;SDS011;37744;50.960;4.136;2022-11-21T07:22:13;16.40;;;4.63;;
51270;SDS011;37744;50.960;4.136;2022-11-21T07:24:38;17.65;;;4.80;;
51270;SDS011;37744;50.960;4.136;2022-11-21T07:27:04;19.05;;;5.25;;
51270;SDS011;37744;50.960;4.136;2022-11-21T07:29:29;13.60;;;4.63;;
51270;SDS011;37744;50.960;4.136;2022-11-21T07:31:54;13.30;;;4.18;;
51270;SDS011;37744;50.960;4.136;2022-11-21T07:34:19;12.05;;;4.07;;
51270;SDS011;37744;50.960;4.136;2022-11-21T07:36:45;10.27;;;3.60;;
51270;SDS011;37744;50.960;4.136;2022-11-21T07:39:10;14.80;;;3.67;;
51270;SDS011;37744;50.960;4.136;2022-11-21T07:41:35;13.95;;;3.92;;
51270;SDS011;37744;50.960;4.136;2022-11-21T07:44:01;15.30;;;4.30;;
51270;SDS011;37744;50.960;4.136;2022-11-21T07:46:26;12.52;;;3.55;;
51270;SDS011;37744;50.960;4.136;2022-11-21T07:48:51;15.32;;;3.50;;
51270;SDS011;37744;50.960;4.136;2022-11-21T07:51:16;12.73;;;3.60;;
51270;SDS011;37744;50.960;4.136;2022-11-21T07:53:42;6.97;;;3.50;;
51270;SDS011;37744;50.960;4.136;2022-11-21T07:56:07;14.32;;;4.07;;
51270;SDS011;37744;50.960;4.136;2022-11-21T07:58:35;11.75;;;3.40;;
51270;SDS011;37744;50.960;4.136;2022-11-21T08:01:04;8.95;;;3.42;;
51270;SDS011;37744;50.960;4.136;2022-11-21T08:03:29;13.05;;;3.63;;
51270;SDS011;37744;50.960;4.136;2022-11-21T08:05:55;8.60;;;3.50;;
51270;SDS011;37744;50.960;4.136;2022-11-21T08:08:20;10.65;;;3.60;;
51270;SDS011;37744;50.960;4.136;2022-11-21T08:10:45;11.02;;;3.60;;
51270;SDS011;37744;50.960;4.136;2022-11-21T08:13:11;12.25;;;3.42;;
51270;SDS011;37744;50.960;4.136;2022-11-21T08:15:36;12.27;;;4.05;;
51270;SDS011;37744;50.960;4.136;2022-11-21T08:18:11;11.55;;;3.45;;
51270;SDS011;37744;50.960;4.136;2022-11-21T08:20:37;11.60;;;3.65;;
51270;SDS011;37744;50.960;4.136;2022-11-21T08:23:03;12.32;;;3.28;;
51270;SDS011;37744;50.960;4.136;2022-11-21T08:25:28;12.15;;;4.53;;
51270;SDS011;37744;50.960;4.136;2022-11-21T08:27:57;11.60;;;3.60;;
51270;SDS011;37744;50.960;4.136;2022-11-21T08:30:22;15.43;;;3.88;;
51270;SDS011;37744;50.960;4.136;2022-11-21T08:32:48;14.00;;;4.40;;
51270;SDS011;37744;50.960;4.136;2022-11-21T08:35:13;13.60;;;3.80;;
51270;SDS011;37744;50.960;4.136;2022-11-21T08:37:38;13.18;;;3.90;;
51270;SDS011;37744;50.960;4.136;2022-11-21T08:40:03;13.63;;;4.78;;
51270;SDS011;37744;50.960;4.136;2022-11-21T08:42:29;9.65;;;4.20;;
51270;SDS011;37744;50.960;4.136;2022-11-21T08:44:54;13.48;;;4.05;;
51270;SDS011;37744;50.960;4.136;2022-11-21T08:47:19;14.93;;;3.88;;
51270;SDS011;37744;50.960;4.136;2022-11-21T08:49:45;10.35;;;3.40;;
51270;SDS011;37744;50.960;4.136;2022-11-21T08:52:10;13.93;;;3.60;;
51270;SDS011;37744;50.960;4.136;2022-11-21T08:54:35;10.07;;;3.72;;
51270;SDS011;37744;50.960;4.136;2022-11-21T08:57:01;18.15;;;3.88;;
51270;SDS011;37744;50.960;4.136;2022-11-21T08:59:26;15.60;;;4.40;;
51270;SDS011;37744;50.960;4.136;2022-11-21T09:01:51;12.13;;;4.68;;
51270;SDS011;37744;50.960;4.136;2022-11-21T09:04:17;11.75;;;3.65;;
51270;SDS011;37744;50.960;4.136;2022-11-21T09:06:42;12.27;;;3.88;;
51270;SDS011;37744;50.960;4.136;2022-11-21T09:09:07;13.73;;;4.32;;
51270;SDS011;37744;50.960;4.136;2022-11-21T09:11:33;14.65;;;4.07;;
51270;SDS011;37744;50.960;4.136;2022-11-21T09:13:59;19.33;;;4.40;;
51270;SDS011;37744;50.960;4.136;2022-11-21T09:16:43;21.17;;;5.18;;
51270;SDS011;37744;50.960;4.136;2022-11-21T09:19:27;18.55;;;5.22;;
51270;SDS011;37744;50.960;4.136;2022-11-21T09:21:52;21.55;;;5.03;;
51270;SDS011;37744;50.960;4.136;2022-11-21T09:24:17;14.80;;;4.82;;
51270;SDS011;37744;50.960;4.136;2022-11-21T09:26:43;19.50;;;5.30;;
51270;SDS011;37744;50.960;4.136;2022-11-21T09:29:08;18.70;;;5.20;;
51270;SDS011;37744;50.960;4.136;2022-11-21T09:31:39;17.63;;;5.57;;
51270;SDS011;37744;50.960;4.136;2022-11-21T09:34:05;22.55;;;6.22;;
51270;SDS011;37744;50.960;4.136;2022-11-21T09:36:30;18.35;;;6.63;;
51270;SDS011;37744;50.960;4.136;2022-11-21T09:38:55;20.55;;;5.88;;
51270;SDS011;37744;50.960;4.136;2022-11-21T09:41:25;15.32;;;6.10;;
51270;SDS011;37744;50.960;4.136;2022-11-21T09:44:20;23.80;;;6.53;;
51270;SDS011;37744;50.960;4.136;2022-11-21T09:46:50;23.02;;;6.35;;
51270;SDS011;37744;50.960;4.136;2022-11-21T09:49:18;19.42;;;6.28;;
51270;SDS011;37744;50.960;4.136;2022-11-21T09:51:46;21.23;;;6.38;;
51270;SDS011;37744;50.960;4.136;2022-11-21T09:54:18;19.20;;;6.18;;
51270;SDS011;37744;50.960;4.136;2022-11-21T09:56:47;17.08;;;6.00;;
51270;SDS011;37744;50.960;4.136;2022-11-21T09:59:24;20.38;;;5.95;;
51270;SDS011;37744;50.960;4.136;2022-11-21T10:01:51;14.75;;;6.05;;
51270;SDS011;37744;50.960;4.136;2022-11-21T10:04:16;14.30;;;5.95;;
51270;SDS011;37744;50.960;4.136;2022-11-21T10:06:45;17.98;;;6.13;;
51270;SDS011;37744;50.960;4.136;2022-11-21T10:17:53;22.98;;;5.80;;
51270;SDS011;37744;50.960;4.136;2022-11-21T10:27:48;17.45;;;5.28;;
51270;SDS011;37744;50.960;4.136;2022-11-21T10:30:16;15.77;;;5.63;;
51270;SDS011;37744;50.960;4.136;2022-11-21T10:32:48;10.38;;;5.70;;
51270;SDS011;37744;50.960;4.136;2022-11-21T10:35:17;11.38;;;5.38;;
51270;SDS011;37744;50.960;4.136;2022-11-21T10:37:52;13.85;;;5.90;;
51270;SDS011;37744;50.960;4.136;2022-11-21T10:43:03;15.00;;;5.80;;
51270;SDS011;37744;50.960;4.136;2022-11-21T10:45:50;15.68;;;5.75;;
51270;SDS011;37744;50.960;4.136;2022-11-21T10:48:16;14.90;;;5.85;;
51270;SDS011;37744;50.960;4.136;2022-11-21T10:53:13;18.15;;;5.90;;
51270;SDS011;37744;50.960;4.136;2022-11-21T10:56:04;14.50;;;6.10;;
51270;SDS011;37744;50.960;4.136;2022-11-21T10:58:41;14.90;;;5.32;;
51270;SDS011;37744;50.960;4.136;2022-11-21T11:01:17;15.95;;;5.15;;
51270;SDS011;37744;50.960;4.136;2022-11-21T11:03:42;14.60;;;5.15;;
51270;SDS011;37744;50.960;4.136;2022-11-21T11:06:09;15.63;;;5.90;;
51270;SDS011;37744;50.960;4.136;2022-11-21T11:09:08;10.77;;;5.07;;
51270;SDS011;37744;50.960;4.136;2022-11-21T11:11:26;15.50;;;5.38;;
51270;SDS011;37744;50.960;4.136;2022-11-21T11:16:17;18.10;;;5.60;;
51270;SDS011;37744;50.960;4.136;2022-11-21T11:18:47;15.15;;;6.32;;
51270;SDS011;37744;50.960;4.136;2022-11-21T11:21:16;14.70;;;5.63;;
51270;SDS011;37744;50.960;4.136;2022-11-21T11:23:41;16.20;;;5.88;;
51270;SDS011;37744;50.960;4.136;2022-11-21T11:28:47;13.32;;;6.32;;
51270;SDS011;37744;50.960;4.136;2022-11-21T11:31:13;16.35;;;6.07;;
51270;SDS011;37744;50.960;4.136;2022-11-21T11:33:39;16.85;;;7.00;;
51270;SDS011;37744;50.960;4.136;2022-11-21T11:36:09;16.35;;;6.80;;
51270;SDS011;37744;50.960;4.136;2022-11-21T11:38:34;13.65;;;7.05;;
51270;SDS011;37744;50.960;4.136;2022-11-21T11:41:01;16.83;;;6.60;;
51270;SDS011;37744;50.960;4.136;2022-11-21T11:43:41;16.92;;;6.68;;
51270;SDS011;37744;50.960;4.136;2022-11-21T11:49:27;16.52;;;8.10;;
51270;SDS011;37744;50.960;4.136;2022-11-21T11:51:55;16.80;;;7.80;;
51270;SDS011;37744;50.960;4.136;2022-11-21T11:54:27;19.48;;;7.63;;
51270;SDS011;37744;50.960;4.136;2022-11-21T11:56:53;21.23;;;7.40;;
51270;SDS011;37744;50.960;4.136;2022-11-21T11:59:32;15.27;;;7.07;;
51270;SDS011;37744;50.960;4.136;2022-11-21T12:05:03;20.25;;;7.75;;
51270;SDS011;37744;50.960;4.136;2022-11-21T12:07:35;16.75;;;7.57;;
51270;SDS011;37744;50.960;4.136;2022-11-21T12:15:14;19.90;;;7.22;;
51270;SDS011;37744;50.960;4.136;2022-11-21T12:18:12;20.00;;;7.82;;
51270;SDS011;37744;50.960;4.136;2022-11-21T12:23:31;21.83;;;7.60;;
51270;SDS011;37744;50.960;4.136;2022-11-21T12:28:26;16.05;;;7.68;;
51270;SDS011;37744;50.960;4.136;2022-11-21T12:31:02;23.40;;;8.10;;
51270;SDS011;37744;50.960;4.136;2022-11-21T12:33:30;20.65;;;7.20;;
51270;SDS011;37744;50.960;4.136;2022-11-21T12:44:37;20.27;;;6.95;;
51270;SDS011;37744;50.960;4.136;2022-11-21T12:49:44;22.40;;;7.45;;
51270;SDS011;37744;50.960;4.136;2022-11-21T12:52:45;15.73;;;6.30;;
51270;SDS011;37744;50.960;4.136;2022-11-21T12:55:34;16.58;;;6.78;;
51270;SDS011;37744;50.960;4.136;2022-11-21T12:58:22;36.42;;;14.90;;
51270;SDS011;37744;50.960;4.136;2022-11-21T13:05:47;18.65;;;8.60;;
51270;SDS011;37744;50.960;4.136;2022-11-21T13:08:15;16.75;;;7.20;;
51270;SDS011;37744;50.960;4.136;2022-11-21T13:10:43;19.27;;;7.43;;
51270;SDS011;37744;50.960;4.136;2022-11-21T13:13:17;16.77;;;6.57;;
51270;SDS011;37744;50.960;4.136;2022-11-21T13:15:54;20.87;;;6.53;;
51270;SDS011;37744;50.960;4.136;2022-11-21T13:18:22;20.77;;;6.57;;
51270;SDS011;37744;50.960;4.136;2022-11-21T13:20:50;16.88;;;6.97;;
51270;SDS011;37744;50.960;4.136;2022-11-21T13:25:59;20.33;;;5.57;;
51270;SDS011;37744;50.960;4.136;2022-11-21T13:28:28;17.98;;;5.80;;
51270;SDS011;37744;50.960;4.136;2022-11-21T13:30:54;12.57;;;5.72;;
51270;SDS011;37744;50.960;4.136;2022-11-21T13:36:10;16.58;;;6.68;;
51270;SDS011;37744;50.960;4.136;2022-11-21T13:46:57;20.02;;;5.65;;
51270;SDS011;37744;50.960;4.136;2022-11-21T13:49:24;16.92;;;5.55;;
51270;SDS011;37744;50.960;4.136;2022-11-21T13:51:53;11.90;;;4.45;;
51270;SDS011;37744;50.960;4.136;2022-11-21T14:06:13;10.52;;;3.05;;
51270;SDS011;37744;50.960;4.136;2022-11-21T14:10:37;8.43;;;2.83;;
51270;SDS011;37744;50.960;4.136;2022-11-21T14:13:02;9.73;;;3.33;;
51270;SDS011;37744;50.960;4.136;2022-11-21T14:17:54;8.10;;;2.80;;
51270;SDS011;37744;50.960;4.136;2022-11-21T14:25:26;15.98;;;2.75;;
51270;SDS011;37744;50.960;4.136;2022-11-21T14:27:53;13.18;;;2.92;;
51270;SDS011;37744;50.960;4.136;2022-11-21T14:30:26;9.38;;;2.90;;
51270;SDS011;37744;50.960;4.136;2022-11-21T14:32:51;9.68;;;3.03;;
51270;SDS011;37744;50.960;4.136;2022-11-21T14:35:18;9.23;;;3.00;;
51270;SDS011;37744;50.960;4.136;2022-11-21T14:37:43;12.55;;;2.75;;
51270;SDS011;37744;50.960;4.136;2022-11-21T14:40:12;10.88;;;2.78;;
51270;SDS011;37744;50.960;4.136;2022-11-21T14:42:43;11.48;;;3.05;;
51270;SDS011;37744;50.960;4.136;2022-11-21T14:45:20;10.18;;;3.75;;
51270;SDS011;37744;50.960;4.136;2022-11-21T14:47:49;9.90;;;2.60;;
51270;SDS011;37744;50.960;4.136;2022-11-21T14:50:22;9.85;;;2.90;;
51270;SDS011;37744;50.960;4.136;2022-11-21T14:52:47;9.73;;;3.10;;
51270;SDS011;37744;50.960;4.136;2022-11-21T14:55:21;10.80;;;3.03;;
51270;SDS011;37744;50.960;4.136;2022-11-21T14:57:49;10.93;;;3.00;;
51270;SDS011;37744;50.960;4.136;2022-11-21T15:00:15;15.13;;;3.47;;
51270;SDS011;37744;50.960;4.136;2022-11-21T15:02:42;11.52;;;4.47;;
51270;SDS011;37744;50.960;4.136;2022-11-21T15:05:11;8.40;;;3.38;;
51270;SDS011;37744;50.960;4.136;2022-11-21T15:07:39;13.43;;;3.58;;
51270;SDS011;37744;50.960;4.136;2022-11-21T15:10:06;7.72;;;2.90;;
51270;SDS011;37744;50.960;4.136;2022-11-21T15:15:00;10.60;;;2.90;;
51270;SDS011;37744;50.960;4.136;2022-11-21T15:17:27;11.38;;;2.90;;
51270;SDS011;37744;50.960;4.136;2022-11-21T15:22:36;11.55;;;2.78;;
51270;SDS011;37744;50.960;4.136;2022-11-21T15:25:13;13.05;;;3.47;;
51270;SDS011;37744;50.960;4.136;2022-11-21T15:27:39;9.77;;;3.03;;
51270;SDS011;37744;50.960;4.136;2022-11-21T15:32:33;10.20;;;2.70;;
51270;SDS011;37744;50.960;4.136;2022-11-21T15:34:58;7.40;;;2.20;;
51270;SDS011;37744;50.960;4.136;2022-11-21T15:37:23;8.95;;;3.53;;
51270;SDS011;37744;50.960;4.136;2022-11-21T15:39:49;16.85;;;3.45;;
51270;SDS011;37744;50.960;4.136;2022-11-21T15:44:59;15.05;;;3.20;;
51270;SDS011;37744;50.960;4.136;2022-11-21T15:47:25;10.32;;;2.88;;
51270;SDS011;37744;50.960;4.136;2022-11-21T15:49:50;11.27;;;3.88;;
51270;SDS011;37744;50.960;4.136;2022-11-21T15:52:15;8.13;;;3.35;;
51270;SDS011;37744;50.960;4.136;2022-11-21T15:54:40;13.48;;;3.92;;
51270;SDS011;37744;50.960;4.136;2022-11-21T15:57:07;14.93;;;4.43;;
51270;SDS011;37744;50.960;4.136;2022-11-21T15:59:32;20.42;;;9.93;;
51270;SDS011;37744;50.960;4.136;2022-11-21T16:01:57;24.55;;;12.38;;
51270;SDS011;37744;50.960;4.136;2022-11-21T16:04:23;23.27;;;10.95;;
51270;SDS011;37744;50.960;4.136;2022-11-21T16:06:48;26.13;;;13.60;;
51270;SDS011;37744;50.960;4.136;2022-11-21T16:09:13;19.73;;;7.18;;
51270;SDS011;37744;50.960;4.136;2022-11-21T16:11:38;22.40;;;12.60;;
51270;SDS011;37744;50.960;4.136;2022-11-21T16:14:13;17.80;;;8.38;;
51270;SDS011;37744;50.960;4.136;2022-11-21T16:16:40;18.10;;;4.50;;
51270;SDS011;37744;50.960;4.136;2022-11-21T16:19:06;17.92;;;4.35;;
51270;SDS011;37744;50.960;4.136;2022-11-21T16:21:31;13.77;;;4.38;;
51270;SDS011;37744;50.960;4.136;2022-11-21T16:23:56;18.50;;;4.63;;
51270;SDS011;37744;50.960;4.136;2022-11-21T16:26:22;15.88;;;5.13;;
51270;SDS011;37744;50.960;4.136;2022-11-21T16:28:54;21.00;;;4.75;;